createdAt,value
2023-01-13T00:01:29.126Z,10.64
2023-01-13T00:03:56.872Z,10.64
2023-01-13T00:06:26.320Z,10.67
2023-01-13T00:08:54.289Z,10.60
2023-01-13T00:11:22.378Z,10.63
2023-01-13T00:13:49.462Z,10.60
2023-01-13T00:16:18.409Z,10.58
2023-01-13T00:18:47.053Z,10.48
2023-01-13T00:21:24.168Z,10.53
2023-01-13T00:23:54.088Z,10.49
2023-01-13T00:26:27.658Z,10.50
2023-01-13T00:28:59.092Z,10.50
2023-01-13T00:31:28.358Z,10.43
2023-01-13T00:34:02.466Z,10.52
2023-01-13T00:36:30.982Z,10.47
2023-01-13T00:38:58.808Z,10.45
2023-01-13T00:41:27.096Z,10.44
2023-01-13T00:43:54.187Z,10.43
2023-01-13T00:46:22.878Z,10.46
2023-01-13T00:48:51.786Z,10.49
2023-01-13T00:51:21.816Z,10.37
2023-01-13T00:53:51.296Z,10.43
2023-01-13T00:56:39.055Z,10.41
2023-01-13T00:59:09.873Z,10.39
2023-01-13T01:01:37.119Z,10.40
2023-01-13T01:04:04.479Z,10.39
2023-01-13T01:06:31.718Z,10.32
2023-01-13T01:08:58.755Z,10.27
2023-01-13T01:11:29.748Z,10.28
2023-01-13T01:14:00.078Z,10.27
2023-01-13T01:16:30.399Z,10.38
2023-01-13T01:18:57.780Z,10.29
2023-01-13T01:21:27.796Z,10.33
2023-01-13T01:23:56.036Z,10.19
2023-01-13T01:26:26.219Z,10.31
2023-01-13T01:28:54.193Z,10.24
2023-01-13T01:31:34.157Z,10.20
2023-01-13T01:34:02.021Z,10.14
2023-01-13T01:36:33.496Z,10.21
2023-01-13T01:39:01.024Z,10.21
2023-01-13T01:41:32.043Z,10.22
2023-01-13T01:44:24.558Z,10.15
2023-01-13T01:46:52.129Z,10.05
2023-01-13T01:49:26.407Z,10.17
2023-01-13T01:52:01.597Z,10.13
2023-01-13T01:55:07.479Z,10.10
2023-01-13T01:57:50.869Z,9.93
2023-01-13T02:00:17.966Z,10.02
2023-01-13T02:02:48.294Z,10.05
2023-01-13T02:05:15.773Z,10.11
2023-01-13T02:07:45.979Z,10.08
2023-01-13T02:10:18.399Z,10.13
2023-01-13T02:12:47.295Z,9.96
2023-01-13T02:15:17.621Z,10.08
2023-01-13T02:18:22.300Z,9.99
2023-01-13T02:21:16.317Z,10.00
2023-01-13T02:24:41.389Z,9.93
2023-01-13T02:27:58.590Z,9.96
2023-01-13T02:31:07.591Z,10.06
2023-01-13T02:34:13.754Z,10.10
2023-01-13T02:37:06.065Z,10.11
2023-01-13T02:40:03.268Z,10.08
2023-01-13T02:43:23.341Z,10.16
2023-01-13T02:45:58.186Z,10.17
2023-01-13T02:48:30.756Z,10.19
2023-01-13T02:51:14.458Z,10.19
2023-01-13T02:53:50.816Z,10.22
2023-01-13T02:56:18.187Z,10.31
2023-01-13T02:58:47.145Z,10.40
2023-01-13T03:01:14.251Z,10.34
2023-01-13T03:03:41.288Z,10.23
2023-01-13T03:06:17.232Z,10.33
2023-01-13T03:08:54.372Z,10.29
2023-01-13T03:11:21.864Z,10.09
2023-01-13T03:14:17.218Z,10.08
2023-01-13T03:17:18.802Z,10.12
2023-01-13T03:20:07.305Z,10.06
2023-01-13T03:23:06.469Z,10.18
2023-01-13T03:26:04.352Z,10.07
2023-01-13T03:28:38.835Z,10.03
2023-01-13T03:31:15.280Z,10.14
2023-01-13T03:33:50.504Z,10.07
2023-01-13T03:36:23.141Z,10.13
2023-01-13T03:38:58.965Z,9.97
2023-01-13T03:41:54.574Z,10.03
2023-01-13T03:44:34.057Z,9.99
2023-01-13T03:47:21.892Z,9.99
2023-01-13T03:50:05.520Z,10.14
2023-01-13T03:52:41.660Z,10.07
2023-01-13T03:55:19.023Z,10.34
2023-01-13T03:58:14.632Z,10.07
2023-01-13T04:01:04.769Z,10.03
2023-01-13T04:03:42.186Z,10.01
2023-01-13T04:06:27.247Z,9.91
2023-01-13T04:09:07.374Z,9.82
2023-01-13T04:11:45.163Z,9.93
2023-01-13T04:14:14.249Z,9.89
2023-01-13T04:16:41.923Z,9.85
2023-01-13T04:19:08.906Z,9.78
2023-01-13T04:21:36.494Z,9.86
2023-01-13T04:24:03.557Z,9.83
2023-01-13T04:26:30.592Z,9.86
2023-01-13T04:28:57.535Z,9.80
2023-01-13T04:31:24.655Z,9.81
2023-01-13T04:33:51.634Z,9.73
2023-01-13T04:36:19.665Z,9.76
2023-01-13T04:38:46.729Z,9.70
2023-01-13T04:41:13.681Z,9.79
2023-01-13T04:43:40.608Z,9.77
2023-01-13T04:46:07.638Z,9.74
2023-01-13T04:48:34.625Z,9.70
2023-01-13T04:51:01.585Z,9.79
2023-01-13T04:53:28.847Z,9.67
2023-01-13T04:55:58.959Z,9.72
2023-01-13T04:58:26.036Z,9.71
2023-01-13T05:00:53.229Z,9.70
2023-01-13T05:03:20.193Z,9.74
2023-01-13T05:05:52.208Z,9.79
2023-01-13T05:08:19.203Z,9.75
2023-01-13T05:10:46.255Z,9.75
2023-01-13T05:13:32.100Z,9.79
2023-01-13T05:16:19.904Z,9.77
2023-01-13T05:18:47.047Z,9.77
2023-01-13T05:21:34.594Z,9.82
2023-01-13T05:24:20.344Z,9.82
2023-01-13T05:26:47.320Z,9.84
2023-01-13T05:29:14.264Z,9.78
2023-01-13T05:31:41.328Z,9.74
2023-01-13T05:34:08.330Z,9.78
2023-01-13T05:36:35.352Z,9.71
2023-01-13T05:39:02.343Z,9.73
2023-01-13T05:41:47.858Z,9.68
2023-01-13T05:44:15.503Z,9.69
2023-01-13T05:46:42.710Z,9.71
2023-01-13T05:49:09.690Z,9.67
2023-01-13T05:51:36.648Z,9.67
2023-01-13T05:54:03.713Z,9.66
2023-01-13T05:56:30.697Z,9.63
2023-01-13T05:58:58.880Z,9.64
2023-01-13T06:01:25.925Z,9.63
2023-01-13T06:03:52.942Z,9.64
2023-01-13T06:06:19.994Z,9.55
2023-01-13T06:08:47.029Z,9.51
2023-01-13T06:11:13.991Z,9.58
2023-01-13T06:13:40.971Z,9.46
2023-01-13T06:16:08.037Z,9.60
2023-01-13T06:18:35.058Z,9.49
2023-01-13T06:21:02.252Z,9.49
2023-01-13T06:23:29.421Z,9.50
2023-01-13T06:26:05.165Z,9.48
2023-01-13T06:28:33.366Z,9.46
2023-01-13T06:31:05.183Z,9.56
2023-01-13T06:33:45.210Z,9.62
2023-01-13T06:36:30.027Z,9.50
2023-01-13T06:39:00.036Z,9.57
2023-01-13T06:41:47.358Z,9.51
2023-01-13T06:44:14.429Z,9.46
2023-01-13T06:46:41.477Z,11.14
2023-01-13T06:49:08.759Z,11.92
2023-01-13T06:51:35.871Z,12.43
2023-01-13T06:54:02.931Z,12.78
2023-01-13T06:56:30.072Z,13.10
2023-01-13T06:58:57.107Z,13.33
2023-01-13T07:01:24.166Z,13.47
2023-01-13T07:03:51.628Z,13.61
2023-01-13T07:06:18.687Z,13.73
2023-01-13T07:08:45.625Z,13.74
2023-01-13T07:11:12.559Z,13.81
2023-01-13T07:13:58.325Z,13.81
2023-01-13T07:16:28.054Z,13.86
2023-01-13T07:18:55.342Z,13.89
2023-01-13T07:21:22.380Z,13.79
2023-01-13T07:23:49.341Z,13.84
2023-01-13T07:26:16.840Z,13.95
2023-01-13T07:28:43.914Z,13.98
2023-01-13T07:31:21.670Z,13.99
2023-01-13T07:33:48.989Z,14.02
2023-01-13T07:36:16.103Z,14.01
2023-01-13T07:38:44.621Z,14.01
2023-01-13T07:41:41.950Z,14.00
2023-01-13T07:44:10.851Z,14.03
2023-01-13T07:46:39.224Z,14.05
2023-01-13T07:49:06.984Z,14.07
2023-01-13T07:51:38.399Z,14.08
2023-01-13T07:54:06.204Z,14.08
2023-01-13T07:56:33.455Z,14.08
2023-01-13T07:59:01.308Z,14.05
2023-01-13T08:01:28.750Z,14.05
2023-01-13T08:03:56.333Z,14.04
2023-01-13T08:06:23.524Z,14.05
2023-01-13T08:08:51.213Z,14.05
2023-01-13T08:11:18.849Z,14.05
2023-01-13T08:13:45.964Z,14.07
2023-01-13T08:16:14.868Z,14.03
2023-01-13T08:18:42.691Z,14.02
2023-01-13T08:21:13.543Z,14.01
2023-01-13T08:23:42.360Z,14.00
2023-01-13T08:26:19.154Z,13.99
2023-01-13T08:28:46.465Z,14.00
2023-01-13T08:31:17.108Z,13.97
2023-01-13T08:33:44.421Z,13.98
2023-01-13T08:36:12.665Z,13.98
2023-01-13T08:38:41.412Z,14.00
2023-01-13T08:41:11.536Z,14.03
2023-01-13T08:43:38.577Z,13.99
2023-01-13T08:46:05.909Z,14.04
2023-01-13T08:48:33.500Z,14.03
2023-01-13T08:51:09.295Z,14.04
2023-01-13T08:53:36.299Z,14.03
2023-01-13T08:56:11.696Z,14.01
2023-01-13T08:58:39.082Z,14.00
2023-01-13T09:01:08.454Z,14.01
2023-01-13T09:03:35.598Z,14.00
2023-01-13T09:06:02.864Z,14.06
2023-01-13T09:08:29.943Z,14.00
2023-01-13T09:10:57.641Z,14.00
2023-01-13T09:13:24.686Z,14.04
2023-01-13T09:15:55.922Z,13.91
2023-01-13T09:18:22.891Z,14.01
2023-01-13T09:20:49.839Z,14.02
2023-01-13T09:23:16.836Z,14.01
2023-01-13T09:25:43.782Z,14.03
2023-01-13T09:28:10.864Z,14.03
2023-01-13T09:30:38.234Z,13.88
2023-01-13T09:33:24.104Z,13.90
2023-01-13T09:35:51.181Z,13.89
2023-01-13T09:38:18.287Z,13.92
2023-01-13T09:40:49.668Z,13.91
2023-01-13T09:43:54.814Z,14.03
2023-01-13T09:46:43.930Z,13.98
2023-01-13T09:49:30.571Z,14.01
2023-01-13T09:52:27.027Z,14.02
2023-01-13T09:55:19.538Z,14.01
2023-01-13T09:57:46.589Z,13.92
2023-01-13T10:00:23.946Z,13.87
2023-01-13T10:03:32.518Z,13.86
2023-01-13T10:06:31.833Z,13.96
2023-01-13T10:08:59.254Z,14.04
2023-01-13T10:11:55.739Z,13.99
2023-01-13T10:14:25.656Z,14.04
2023-01-13T10:17:22.810Z,13.93
2023-01-13T10:20:20.973Z,14.02
2023-01-13T10:23:17.983Z,14.13
2023-01-13T10:26:34.792Z,14.04
2023-01-13T10:29:01.788Z,14.17
2023-01-13T10:31:28.863Z,14.18
2023-01-13T10:34:06.198Z,14.12
2023-01-13T10:36:33.561Z,14.09
2023-01-13T10:39:21.297Z,14.15
2023-01-13T10:41:48.338Z,14.01
2023-01-13T10:44:19.216Z,14.05
2023-01-13T10:46:58.780Z,14.12
2023-01-13T10:49:38.771Z,14.00
2023-01-13T10:52:27.775Z,13.99
2023-01-13T10:54:56.849Z,14.09
2023-01-13T10:57:27.089Z,14.10
2023-01-13T10:59:55.553Z,14.12
2023-01-13T11:02:34.543Z,14.19
2023-01-13T11:05:24.530Z,14.16
2023-01-13T11:07:55.090Z,13.95
2023-01-13T11:10:23.907Z,14.08
2023-01-13T11:13:15.995Z,14.07
2023-01-13T11:16:13.251Z,14.00
2023-01-13T11:19:02.616Z,13.85
2023-01-13T11:22:00.390Z,13.89
2023-01-13T11:24:56.306Z,13.85
2023-01-13T11:27:47.856Z,13.72
2023-01-13T11:30:56.617Z,13.51
2023-01-13T11:34:04.901Z,13.39
2023-01-13T11:36:49.330Z,13.24
2023-01-13T11:40:03.843Z,13.63
2023-01-13T11:42:43.415Z,13.77
2023-01-13T11:45:34.002Z,13.51
2023-01-13T11:48:02.682Z,13.25
2023-01-13T11:51:07.425Z,13.08
2023-01-13T11:53:56.890Z,13.11
2023-01-13T11:56:58.057Z,12.81
2023-01-13T12:00:03.039Z,12.75
2023-01-13T12:03:17.257Z,12.65
2023-01-13T12:06:16.314Z,12.98
2023-01-13T12:08:55.401Z,12.46
2023-01-13T12:11:55.583Z,12.59
2023-01-13T12:14:38.818Z,13.02
2023-01-13T12:17:22.864Z,12.90
2023-01-13T12:19:51.372Z,12.82
2023-01-13T12:22:30.397Z,12.72
2023-01-13T12:25:42.727Z,12.77
2023-01-13T12:28:51.178Z,12.94
2023-01-13T12:31:19.844Z,12.98
2023-01-13T12:34:27.265Z,12.66
2023-01-13T12:37:30.884Z,12.79
2023-01-13T12:40:27.123Z,12.81
2023-01-13T12:43:38.933Z,12.90
2023-01-13T12:46:21.441Z,12.75
2023-01-13T12:48:57.176Z,12.92
2023-01-13T12:51:58.039Z,12.90
2023-01-13T12:54:30.762Z,12.72
2023-01-13T12:57:01.143Z,12.79
2023-01-13T12:59:27.955Z,12.95
2023-01-13T13:02:15.865Z,13.00
2023-01-13T13:04:51.946Z,12.80
2023-01-13T13:07:32.838Z,12.90
2023-01-13T13:10:16.504Z,12.76
2023-01-13T13:13:01.666Z,12.77
2023-01-13T13:15:29.585Z,12.87
2023-01-13T13:17:59.767Z,12.59
2023-01-13T13:20:56.024Z,12.75
2023-01-13T13:23:40.299Z,13.02
2023-01-13T13:26:22.136Z,13.04
2023-01-13T13:29:45.307Z,13.08
2023-01-13T13:32:36.994Z,13.12
2023-01-13T13:35:40.434Z,13.19
2023-01-13T13:38:58.286Z,13.14
2023-01-13T13:41:44.867Z,13.30
2023-01-13T13:44:48.928Z,13.34
2023-01-13T13:47:16.232Z,13.43
2023-01-13T13:49:53.049Z,13.40
2023-01-13T13:53:01.727Z,13.38
2023-01-13T13:55:30.179Z,13.15
2023-01-13T13:57:59.107Z,12.73
2023-01-13T14:00:34.727Z,13.00
2023-01-13T14:03:18.969Z,13.22
2023-01-13T14:06:05.145Z,13.33
2023-01-13T14:08:37.539Z,13.42
2023-01-13T14:11:28.570Z,13.27
2023-01-13T14:14:13.605Z,13.28
2023-01-13T14:16:41.186Z,13.34
2023-01-13T14:19:30.788Z,13.32
2023-01-13T14:22:03.470Z,13.38
2023-01-13T14:24:31.660Z,13.42
2023-01-13T14:27:17.347Z,13.23
2023-01-13T14:29:45.491Z,13.27
2023-01-13T14:32:20.349Z,13.38
2023-01-13T14:34:47.739Z,13.17
2023-01-13T14:37:35.805Z,13.37
2023-01-13T14:40:04.044Z,13.52
2023-01-13T14:42:35.222Z,13.49
2023-01-13T14:45:03.513Z,13.22
2023-01-13T14:47:33.913Z,13.10
2023-01-13T14:50:31.445Z,13.04
2023-01-13T14:53:00.711Z,13.10
2023-01-13T14:55:37.390Z,13.06
2023-01-13T14:58:21.973Z,13.08
2023-01-13T15:01:14.229Z,13.07
2023-01-13T15:03:42.813Z,12.76
2023-01-13T15:06:25.690Z,12.75
2023-01-13T15:08:53.307Z,12.89
2023-01-13T15:11:28.088Z,13.14
2023-01-13T15:14:01.506Z,13.07
2023-01-13T15:16:33.813Z,13.19
2023-01-13T15:19:01.645Z,13.05
2023-01-13T15:21:28.702Z,12.93
2023-01-13T15:23:55.772Z,12.94
2023-01-13T15:26:29.946Z,13.03
2023-01-13T15:28:58.729Z,13.15
2023-01-13T15:31:28.595Z,13.20
2023-01-13T15:33:55.600Z,13.12
2023-01-13T15:36:32.313Z,13.37
2023-01-13T15:39:01.292Z,13.40
2023-01-13T15:41:47.588Z,13.39
2023-01-13T15:44:34.635Z,13.39
2023-01-13T15:47:10.941Z,13.30
2023-01-13T15:50:28.870Z,13.39
2023-01-13T15:52:55.968Z,13.52
2023-01-13T15:55:22.951Z,13.56
2023-01-13T15:57:50.845Z,13.54
2023-01-13T16:00:24.225Z,12.14
2023-01-13T16:02:51.487Z,10.61
2023-01-13T16:05:20.489Z,10.48
2023-01-13T16:07:47.642Z,10.43
2023-01-13T16:10:27.459Z,10.48
2023-01-13T16:12:58.117Z,10.40
2023-01-13T16:15:26.050Z,10.38
2023-01-13T16:18:03.503Z,10.37
2023-01-13T16:20:30.806Z,10.32
2023-01-13T16:22:57.842Z,10.38
2023-01-13T16:25:27.201Z,10.44
2023-01-13T16:27:54.589Z,10.39
2023-01-13T16:30:28.191Z,10.39
2023-01-13T16:32:56.435Z,10.41
2023-01-13T16:35:24.895Z,10.41
2023-01-13T16:37:53.978Z,10.44
2023-01-13T16:40:31.086Z,10.42
2023-01-13T16:42:58.532Z,10.42
2023-01-13T16:45:25.816Z,10.44
2023-01-13T16:47:53.382Z,10.40
2023-01-13T16:50:41.116Z,10.48
2023-01-13T16:53:09.366Z,10.42
2023-01-13T16:55:40.726Z,10.43
2023-01-13T16:58:19.843Z,10.47
2023-01-13T17:00:48.099Z,10.46
2023-01-13T17:03:16.167Z,10.45
2023-01-13T17:05:46.800Z,10.41
2023-01-13T17:08:19.032Z,10.40
2023-01-13T17:10:47.065Z,10.42
2023-01-13T17:13:16.746Z,10.43
2023-01-13T17:15:47.412Z,10.47
2023-01-13T17:18:14.452Z,10.48
2023-01-13T17:20:41.636Z,10.44
2023-01-13T17:23:08.739Z,10.42
2023-01-13T17:25:35.807Z,10.37
2023-01-13T17:28:02.934Z,10.41
2023-01-13T17:30:29.989Z,10.41
2023-01-13T17:32:57.137Z,10.41
2023-01-13T17:35:25.133Z,10.42
2023-01-13T17:37:53.953Z,10.48
2023-01-13T17:40:21.433Z,10.44
2023-01-13T17:45:30.558Z,10.41
2023-01-13T17:47:58.294Z,10.39
2023-01-13T17:50:27.678Z,10.39
2023-01-13T17:52:54.705Z,10.39
2023-01-13T17:55:21.896Z,10.40
2023-01-13T17:57:49.005Z,10.44
2023-01-13T18:00:16.821Z,10.40
2023-01-13T18:02:43.938Z,10.42
2023-01-13T18:05:12.610Z,10.44
2023-01-13T18:07:39.647Z,10.35
2023-01-13T18:10:07.422Z,10.33
2023-01-13T18:12:34.972Z,10.34
2023-01-13T18:15:01.909Z,10.29
2023-01-13T18:17:28.943Z,10.33
2023-01-13T18:20:14.491Z,10.33
2023-01-13T18:23:00.044Z,10.29
2023-01-13T18:25:46.227Z,10.26
2023-01-13T18:28:13.197Z,10.24
2023-01-13T18:30:40.155Z,10.25
2023-01-13T18:33:07.159Z,10.27
2023-01-13T18:35:34.159Z,10.29
2023-01-13T18:38:01.159Z,10.31
2023-01-13T18:40:28.203Z,10.27
2023-01-13T18:42:55.862Z,10.25
2023-01-13T18:45:29.866Z,10.18
2023-01-13T18:48:00.272Z,10.28
2023-01-13T18:50:28.360Z,10.20
2023-01-13T18:52:55.931Z,10.14
2023-01-13T18:55:23.731Z,10.11
2023-01-13T18:57:51.337Z,10.06
2023-01-13T19:00:21.763Z,10.02
2023-01-13T19:05:34.783Z,9.98
2023-01-13T19:08:02.487Z,9.99
2023-01-13T19:10:32.260Z,9.97
2023-01-13T19:12:59.604Z,10.04
2023-01-13T19:15:26.586Z,10.01
2023-01-13T19:17:53.559Z,10.02
2023-01-13T19:20:20.805Z,10.01
2023-01-13T19:22:53.968Z,9.98
2023-01-13T19:25:21.106Z,9.96
2023-01-13T19:27:48.100Z,9.96
2023-01-13T19:30:15.179Z,9.96
2023-01-13T19:32:42.179Z,9.96
2023-01-13T19:35:09.495Z,9.93
2023-01-13T19:37:36.945Z,9.92
2023-01-13T19:40:09.297Z,9.98
2023-01-13T19:42:55.278Z,9.97
2023-01-13T19:45:29.163Z,9.98
2023-01-13T19:47:57.944Z,9.95
2023-01-13T19:50:25.147Z,9.91
2023-01-13T19:52:52.439Z,9.93
2023-01-13T19:55:20.054Z,9.95
2023-01-13T19:57:47.146Z,9.90
2023-01-13T20:00:18.646Z,9.94
2023-01-13T20:02:49.227Z,9.96
2023-01-13T20:05:21.176Z,9.94
2023-01-13T20:07:50.049Z,9.98
2023-01-13T20:10:19.410Z,9.94
2023-01-13T20:12:46.441Z,9.97
2023-01-13T20:15:14.228Z,9.89
2023-01-13T20:17:41.745Z,9.96
2023-01-13T20:20:10.865Z,9.97
2023-01-13T20:22:39.801Z,9.94
2023-01-13T20:25:07.976Z,9.87
2023-01-13T20:27:35.674Z,9.95
2023-01-13T20:30:02.931Z,9.93
2023-01-13T20:32:30.009Z,9.84
2023-01-13T20:34:57.006Z,9.87
2023-01-13T20:37:23.994Z,9.95
2023-01-13T20:39:51.123Z,9.85
2023-01-13T20:42:30.290Z,9.88
2023-01-13T20:44:59.234Z,9.84
2023-01-13T20:47:30.717Z,9.75
2023-01-13T20:49:59.258Z,9.76
2023-01-13T20:52:26.683Z,9.73
2023-01-13T20:54:53.630Z,9.79
2023-01-13T20:57:20.707Z,9.75
2023-01-13T20:59:47.653Z,9.75
2023-01-13T21:02:17.068Z,9.73
2023-01-13T21:04:44.195Z,9.67
2023-01-13T21:07:11.648Z,9.67
2023-01-13T21:09:38.893Z,9.71
2023-01-13T21:12:25.718Z,9.73
2023-01-13T21:15:11.132Z,9.67
2023-01-13T21:17:56.702Z,9.75
2023-01-13T21:20:23.728Z,9.71
2023-01-13T21:22:51.111Z,9.69
2023-01-13T21:25:19.321Z,9.64
2023-01-13T21:27:46.510Z,9.67
2023-01-13T21:30:15.788Z,9.67
2023-01-13T21:32:44.793Z,9.66
2023-01-13T21:35:13.886Z,9.60
2023-01-13T21:37:43.265Z,9.61
2023-01-13T21:40:13.835Z,9.62
2023-01-13T21:42:59.635Z,9.65
2023-01-13T21:45:45.790Z,9.62
2023-01-13T21:48:12.865Z,9.53
2023-01-13T21:50:40.076Z,9.55
2023-01-13T21:53:08.201Z,9.56
2023-01-13T21:55:36.851Z,9.56
2023-01-13T21:58:12.028Z,9.51
2023-01-13T22:00:41.585Z,9.54
2023-01-13T22:03:10.140Z,9.50
2023-01-13T22:05:37.773Z,9.54
2023-01-13T22:08:05.705Z,9.48
2023-01-13T22:10:34.317Z,9.50
2023-01-13T22:13:22.589Z,9.45
2023-01-13T22:15:49.664Z,9.43
2023-01-13T22:18:18.315Z,9.35
2023-01-13T22:20:46.035Z,9.37
2023-01-13T22:23:13.368Z,9.34
2023-01-13T22:25:40.382Z,9.29
2023-01-13T22:28:09.176Z,9.27
2023-01-13T22:30:36.353Z,9.30
2023-01-13T22:33:03.679Z,9.30
2023-01-13T22:35:30.719Z,9.26
2023-01-13T22:37:58.448Z,9.27
2023-01-13T22:40:25.376Z,9.32
2023-01-13T22:42:52.344Z,9.27
2023-01-13T22:45:19.351Z,9.38
2023-01-13T22:47:47.625Z,9.32
2023-01-13T22:50:16.662Z,9.30
2023-01-13T22:52:43.606Z,9.34
2023-01-13T22:55:10.588Z,9.36
2023-01-13T22:57:47.270Z,9.28
2023-01-13T23:00:19.060Z,9.36
2023-01-13T23:02:46.751Z,9.38
2023-01-13T23:05:13.960Z,9.28
2023-01-13T23:07:41.366Z,9.28
2023-01-13T23:10:09.228Z,9.24
2023-01-13T23:12:36.201Z,9.23
2023-01-13T23:15:04.615Z,9.23
2023-01-13T23:17:31.637Z,9.25
2023-01-13T23:19:58.658Z,9.24
2023-01-13T23:22:25.726Z,9.23
2023-01-13T23:24:52.875Z,9.26
2023-01-13T23:27:19.853Z,9.16
2023-01-13T23:29:46.835Z,9.15
2023-01-13T23:32:13.840Z,9.17
2023-01-13T23:34:40.840Z,9.15
2023-01-13T23:37:07.805Z,9.10
2023-01-13T23:39:34.807Z,9.11
2023-01-13T23:42:01.808Z,9.06
2023-01-13T23:44:29.507Z,9.07
2023-01-13T23:46:56.506Z,9.03
2023-01-13T23:49:23.506Z,8.96
2023-01-13T23:51:51.930Z,8.97
2023-01-13T23:54:19.343Z,8.91
2023-01-13T23:56:46.437Z,8.94
2023-01-13T23:59:13.448Z,8.90
